Time;durP1;ratioP1;P1;durP2;ratioP2;P2;SDS_P1;SDS_P2;PMS_P1;PMS_P2;Temp;Humidity;BMP_temperature;BMP_pressure;BME280_temperature;BME280_humidity;BME280_pressure;Samples;Min_cycle;Max_cycle;Signal;HPM_P1;HPM_P2
2022/12/14 00:02:09;;;;;;;12.53;9.07;;;-3.10;99.90;;;;;;5075370;28;20641;-70
2022/12/14 00:04:38;;;;;;;11.03;8.60;;;-3.10;99.90;;;;;;5077242;28;20207;-71
2022/12/14 00:07:04;;;;;;;11.43;8.87;;;-3.10;99.90;;;;;;5078966;28;20744;-71
2022/12/14 00:09:31;;;;;;;11.37;8.90;;;-3.10;99.90;;;;;;5078703;28;20314;-70
2022/12/14 00:11:58;;;;;;;11.33;8.53;;;-3.10;99.90;;;;;;5079552;28;20652;-71
2022/12/14 00:14:25;;;;;;;11.20;7.93;;;-3.10;99.90;;;;;;5079490;28;20740;-71
2022/12/14 00:16:52;;;;;;;9.77;8.23;;;-3.10;99.90;;;;;;5077936;28;20748;-70
2022/12/14 00:19:19;;;;;;;12.30;9.00;;;-3.10;99.90;;;;;;5076845;28;20661;-70
2022/12/14 00:21:47;;;;;;;10.93;8.67;;;-3.10;99.90;;;;;;5076053;28;20254;-70
2022/12/14 00:24:14;;;;;;;12.37;9.30;;;-3.10;99.90;;;;;;5070882;28;20203;-70
2022/12/14 00:26:41;;;;;;;13.17;8.90;;;-3.10;99.90;;;;;;5078951;28;20203;-71
2022/12/14 00:29:08;;;;;;;12.23;9.30;;;-3.10;99.90;;;;;;5079083;28;20280;-70
2022/12/14 00:31:35;;;;;;;10.73;8.23;;;-3.10;99.90;;;;;;5073806;28;20258;-71
2022/12/14 00:34:02;;;;;;;12.87;9.23;;;-3.10;99.90;;;;;;5082964;28;20203;-70
2022/12/14 00:36:30;;;;;;;10.77;8.70;;;-3.20;99.90;;;;;;5087807;28;20297;-70
2022/12/14 00:38:58;;;;;;;11.90;8.93;;;-3.20;99.90;;;;;;5088764;28;20688;-70
2022/12/14 00:41:25;;;;;;;14.30;8.87;;;-3.20;99.90;;;;;;5088808;28;20326;-70
2022/12/14 00:43:52;;;;;;;11.60;8.40;;;-3.20;99.90;;;;;;5087792;28;20289;-71
2022/12/14 00:46:19;;;;;;;10.43;8.27;;;-3.20;99.90;;;;;;5076486;28;20300;-71
2022/12/14 00:48:46;;;;;;;11.60;8.03;;;-3.20;99.90;;;;;;5070929;28;20206;-71
2022/12/14 00:51:14;;;;;;;11.37;9.20;;;-3.20;99.90;;;;;;5082222;28;20351;-71
2022/12/14 00:53:41;;;;;;;10.43;8.70;;;-3.20;99.90;;;;;;5088854;28;20208;-71
2022/12/14 00:56:10;;;;;;;11.93;8.67;;;-3.20;99.90;;;;;;5088252;28;20820;-71
2022/12/14 00:58:37;;;;;;;13.13;9.00;;;-3.20;99.90;;;;;;5088781;28;20242;-71
2022/12/14 01:01:07;;;;;;;11.40;8.40;;;-3.30;99.90;;;;;;5087288;28;20266;-71
2022/12/14 01:03:34;;;;;;;9.87;8.07;;;-3.30;99.90;;;;;;5088480;28;20203;-71
2022/12/14 01:06:02;;;;;;;11.20;8.40;;;-3.30;99.90;;;;;;5087388;28;20295;-71
2022/12/14 01:08:34;;;;;;;10.80;8.73;;;-3.30;99.90;;;;;;5088201;28;20237;-71
2022/12/14 01:11:05;;;;;;;12.23;8.13;;;-3.30;99.90;;;;;;5087967;28;20196;-72
2022/12/14 01:13:33;;;;;;;9.77;8.27;;;-3.30;99.90;;;;;;5088382;28;20195;-71
2022/12/14 01:16:04;;;;;;;11.50;8.40;;;-3.30;99.90;;;;;;5087912;28;20289;-71
2022/12/14 01:18:34;;;;;;;11.53;8.70;;;-3.30;99.90;;;;;;5088331;28;20281;-71
2022/12/14 01:21:12;;;;;;;12.70;8.60;;;-3.30;99.90;;;;;;5087873;28;20240;-71
2022/12/14 01:23:39;;;;;;;10.77;8.30;;;-3.30;99.90;;;;;;5088137;28;20203;-71
2022/12/14 01:26:06;;;;;;;9.53;7.93;;;-3.30;99.90;;;;;;5084957;28;20678;-71
2022/12/14 01:28:35;;;;;;;11.37;8.20;;;-3.40;99.90;;;;;;5067737;28;20650;-70
2022/12/14 01:31:06;;;;;;;9.83;8.13;;;-3.40;99.90;;;;;;5066572;28;20754;-70
2022/12/14 01:33:33;;;;;;;13.33;7.90;;;-3.40;99.90;;;;;;5080581;28;20209;-70
2022/12/14 01:36:05;;;;;;;9.73;7.50;;;-3.40;99.90;;;;;;5087511;28;20208;-70
2022/12/14 01:38:32;;;;;;;10.23;7.67;;;-3.40;99.90;;;;;;5087639;28;20187;-71
2022/12/14 01:40:59;;;;;;;10.50;7.27;;;-3.40;99.90;;;;;;5072021;28;20318;-70
2022/12/14 01:43:44;;;;;;;12.77;7.67;;;-3.40;99.90;;;;;;5067607;28;20214;-70
2022/12/14 01:46:14;;;;;;;10.63;7.93;;;-3.40;99.90;;;;;;5067068;28;20314;-70
2022/12/14 01:48:41;;;;;;;10.50;7.67;;;-3.40;99.90;;;;;;5071303;28;20310;-70
2022/12/14 01:51:12;;;;;;;8.97;7.70;;;-3.50;99.90;;;;;;5086160;28;20207;-70
2022/12/14 01:53:38;;;;;;;11.60;7.57;;;-3.50;99.90;;;;;;5080319;28;21035;-70
2022/12/14 01:56:06;;;;;;;9.97;7.53;;;-3.50;99.90;;;;;;5069446;28;20246;-70
2022/12/14 01:58:33;;;;;;;9.87;7.33;;;-3.50;99.90;;;;;;5083407;28;20286;-70
2022/12/14 02:01:01;;;;;;;9.83;7.57;;;-3.50;99.90;;;;;;5077977;28;20246;-72
2022/12/14 02:03:32;;;;;;;9.53;7.33;;;-3.50;99.90;;;;;;5067047;28;20295;-71
2022/12/14 02:06:03;;;;;;;10.73;7.07;;;-3.50;99.90;;;;;;5071553;28;20965;-70
2022/12/14 02:08:31;;;;;;;8.53;7.63;;;-3.50;99.90;;;;;;5083644;28;20788;-71
2022/12/14 02:10:58;;;;;;;8.50;7.40;;;-3.50;99.90;;;;;;5086911;28;20304;-70
2022/12/14 02:13:29;;;;;;;11.40;8.53;;;-3.60;99.90;;;;;;5087227;28;20290;-70
2022/12/14 02:15:55;;;;;;;10.40;7.60;;;-3.60;99.90;;;;;;5067454;28;20322;-71
2022/12/14 02:18:25;;;;;;;9.40;7.57;;;-3.60;99.90;;;;;;5082085;28;20210;-71
2022/12/14 02:21:15;;;;;;;10.07;8.00;;;-3.60;99.90;;;;;;5086537;28;20314;-72
2022/12/14 02:24:41;;;;;;;8.50;7.20;;;-3.60;99.90;;;;;;5087054;28;20215;-72
2022/12/14 02:27:22;;;;;;;9.77;7.07;;;-3.70;99.90;;;;;;5024478;28;20276;-72
2022/12/14 02:30:06;;;;;;;11.07;8.23;;;-3.70;99.90;;;;;;5024422;28;20207;-72
2022/12/14 02:33:17;;;;;;;10.70;7.53;;;-3.70;99.90;;;;;;5076487;28;20299;-71
2022/12/14 02:35:48;;;;;;;9.77;7.33;;;-3.70;99.90;;;;;;5058145;28;20285;-70
2022/12/14 02:38:37;;;;;;;11.23;8.63;;;-3.70;99.90;;;;;;5086886;28;20230;-70
2022/12/14 02:41:15;;;;;;;11.50;8.40;;;-3.90;99.90;;;;;;5086362;28;20265;-71
2022/12/14 02:43:50;;;;;;;9.27;8.03;;;-3.80;99.90;;;;;;5091308;28;20268;-71
2022/12/14 02:46:24;;;;;;;11.77;8.03;;;-3.80;99.90;;;;;;5076416;28;20239;-70
2022/12/14 02:49:01;;;;;;;9.93;8.03;;;-3.80;99.90;;;;;;5070556;28;20286;-70
2022/12/14 02:51:37;;;;;;;9.77;7.87;;;-3.80;99.90;;;;;;5086620;28;20302;-70
2022/12/14 02:54:09;;;;;;;11.17;7.90;;;-3.80;99.90;;;;;;5073562;28;20207;-70
2022/12/14 02:56:42;;;;;;;10.00;7.73;;;-3.80;99.90;;;;;;5070588;28;20286;-71
2022/12/14 02:59:09;;;;;;;10.30;8.57;;;-3.90;99.90;;;;;;5070558;28;20282;-70
2022/12/14 03:01:38;;;;;;;11.70;8.67;;;-3.90;99.90;;;;;;5075236;28;20334;-70
2022/12/14 03:04:07;;;;;;;12.77;8.47;;;-3.90;99.90;;;;;;5070771;28;20287;-70
2022/12/14 03:06:34;;;;;;;10.70;8.10;;;-3.90;99.90;;;;;;5077784;28;20296;-70
2022/12/14 03:09:04;;;;;;;11.57;8.50;;;-4.00;99.90;;;;;;5090525;28;20309;-70
2022/12/14 03:11:36;;;;;;;9.47;7.37;;;-4.00;99.90;;;;;;5090068;28;20183;-70
2022/12/14 03:14:08;;;;;;;11.33;8.53;;;-4.00;99.90;;;;;;5090584;28;20235;-70
2022/12/14 03:16:40;;;;;;;9.97;7.93;;;-4.00;99.90;;;;;;5090553;28;20750;-70
2022/12/14 03:19:13;;;;;;;11.27;8.23;;;-4.00;99.90;;;;;;5084621;28;20294;-70
2022/12/14 03:21:44;;;;;;;11.53;8.37;;;-4.00;99.90;;;;;;5090221;28;20736;-71
2022/12/14 03:24:17;;;;;;;11.40;8.43;;;-4.00;99.90;;;;;;5089919;28;20226;-70
2022/12/14 03:26:50;;;;;;;10.57;7.83;;;-4.10;99.90;;;;;;5090048;28;20290;-70
2022/12/14 03:29:22;;;;;;;10.57;7.93;;;-4.10;99.90;;;;;;5090253;28;20287;-70
2022/12/14 03:31:54;;;;;;;10.17;7.73;;;-4.10;99.90;;;;;;5090593;28;20621;-70
2022/12/14 03:34:27;;;;;;;11.23;8.43;;;-4.20;99.90;;;;;;5090323;28;20240;-70
2022/12/14 03:36:59;;;;;;;12.37;8.63;;;-4.10;99.90;;;;;;5082481;28;20795;-70
2022/12/14 03:39:31;;;;;;;11.73;8.67;;;-4.20;99.90;;;;;;5069383;28;20729;-70
2022/12/14 03:42:03;;;;;;;11.83;8.37;;;-4.10;99.90;;;;;;5079588;28;20222;-71
2022/12/14 03:44:36;;;;;;;10.47;8.07;;;-4.20;99.90;;;;;;5090224;28;20206;-72
2022/12/14 03:47:17;;;;;;;9.50;7.63;;;-4.20;99.90;;;;;;5089160;28;20266;-72
2022/12/14 03:49:57;;;;;;;11.70;8.37;;;-4.20;99.90;;;;;;5089849;28;20290;-71
2022/12/14 03:52:28;;;;;;;13.60;8.50;;;-4.20;99.90;;;;;;5089850;28;20225;-71
2022/12/14 03:55:06;;;;;;;10.20;8.07;;;-4.20;99.90;;;;;;5089019;28;20222;-72
2022/12/14 03:57:47;;;;;;;11.60;8.33;;;-4.20;99.90;;;;;;5089943;28;20669;-73
2022/12/14 04:00:18;;;;;;;10.57;8.43;;;-4.20;99.90;;;;;;5089569;28;20269;-71
2022/12/14 04:02:53;;;;;;;9.73;7.60;;;-4.20;99.90;;;;;;5089800;28;20303;-72
2022/12/14 04:05:25;;;;;;;10.30;8.10;;;-4.20;99.90;;;;;;5089491;28;20344;-71
2022/12/14 04:08:01;;;;;;;11.80;8.00;;;-4.20;99.90;;;;;;5089387;28;20250;-71
2022/12/14 04:19:02;;;;;;;11.70;8.70;;;-4.20;99.90;;;;;;5089146;28;20652;-73
2022/12/14 04:21:36;;;;;;;9.77;7.70;;;-4.20;99.90;;;;;;5078716;28;20233;-70
2022/12/14 04:27:00;;;;;;;10.97;7.80;;;-4.20;99.90;;;;;;5068825;28;20349;-70
2022/12/14 04:32:18;;;;;;;10.50;8.30;;;-4.30;99.90;;;;;;5079138;28;20205;-70
2022/12/14 04:34:50;;;;;;;10.00;7.43;;;-4.30;99.90;;;;;;5083203;28;20230;-70
2022/12/14 04:37:22;;;;;;;10.87;8.13;;;-4.30;99.90;;;;;;5075435;28;20342;-70
2022/12/14 04:39:54;;;;;;;10.77;8.10;;;-4.30;99.90;;;;;;5069160;28;20215;-70
2022/12/14 04:42:24;;;;;;;10.13;8.23;;;-4.30;99.90;;;;;;5088583;28;20760;-71
2022/12/14 04:44:56;;;;;;;10.60;8.37;;;-4.30;99.90;;;;;;5088787;28;20205;-71
2022/12/14 04:47:30;;;;;;;10.60;8.33;;;-4.30;99.90;;;;;;5082685;28;20250;-71
2022/12/14 04:50:02;;;;;;;10.70;8.23;;;-4.30;99.90;;;;;;5071644;28;20210;-71
2022/12/14 04:52:33;;;;;;;10.70;8.97;;;-4.30;99.90;;;;;;5088349;28;20286;-71
2022/12/14 04:55:06;;;;;;;10.80;8.20;;;-4.40;99.90;;;;;;5087962;28;20315;-71
2022/12/14 04:57:41;;;;;;;12.20;9.07;;;-4.40;99.90;;;;;;5088612;28;20198;-71
2022/12/14 05:00:09;;;;;;;10.43;7.73;;;-4.40;99.90;;;;;;5088348;28;20200;-71
2022/12/14 05:02:58;;;;;;;11.17;7.80;;;-4.40;99.90;;;;;;5087552;28;20743;-71
2022/12/14 05:05:36;;;;;;;13.70;8.30;;;-4.40;99.90;;;;;;5087432;28;20255;-71
2022/12/14 05:08:12;;;;;;;13.03;9.03;;;-4.40;99.90;;;;;;5087926;28;20237;-71
2022/12/14 05:10:43;;;;;;;10.83;8.53;;;-4.40;99.90;;;;;;5088100;28;20920;-71
2022/12/14 05:13:14;;;;;;;12.37;8.63;;;-4.40;99.90;;;;;;5087557;28;20297;-71
2022/12/14 05:15:45;;;;;;;12.70;8.70;;;-4.50;99.90;;;;;;5088249;28;20264;-71
2022/12/14 05:18:12;;;;;;;10.40;8.20;;;-4.50;99.90;;;;;;5087463;28;20276;-71
2022/12/14 05:20:40;;;;;;;11.10;8.27;;;-4.40;99.90;;;;;;5087474;28;20252;-71
2022/12/14 05:23:07;;;;;;;10.90;8.20;;;-4.40;99.90;;;;;;5087778;28;20309;-71
2022/12/14 05:25:34;;;;;;;11.37;8.17;;;-4.40;99.90;;;;;;5087450;28;20210;-71
2022/12/14 05:28:01;;;;;;;11.53;8.77;;;-4.50;99.90;;;;;;5087712;28;20250;-70
2022/12/14 05:30:28;;;;;;;10.50;8.00;;;-4.50;99.90;;;;;;5070844;28;20369;-70
2022/12/14 05:32:55;;;;;;;9.37;7.93;;;-4.50;99.90;;;;;;5067640;28;20775;-70
2022/12/14 05:35:22;;;;;;;10.03;8.13;;;-4.50;99.90;;;;;;5067750;28;20208;-70
2022/12/14 05:37:51;;;;;;;12.90;9.37;;;-4.50;99.90;;;;;;5067752;28;20638;-70
2022/12/14 05:40:17;;;;;;;11.77;8.63;;;-4.50;99.90;;;;;;5077822;28;20293;-71
2022/12/14 05:42:44;;;;;;;11.73;8.97;;;-4.50;99.90;;;;;;5071532;28;20233;-71
2022/12/14 05:45:12;;;;;;;11.03;7.90;;;-4.50;99.90;;;;;;5067624;28;20293;-71
2022/12/14 05:47:39;;;;;;;12.23;8.13;;;-4.50;99.90;;;;;;5073491;28;20228;-71
2022/12/14 05:50:08;;;;;;;12.87;8.53;;;-4.40;99.90;;;;;;5071998;28;20206;-71
2022/12/14 05:52:35;;;;;;;11.53;8.20;;;-4.40;99.90;;;;;;5087808;28;20290;-70
2022/12/14 05:55:04;;;;;;;10.87;8.20;;;-4.50;99.90;;;;;;5086979;28;20201;-70
2022/12/14 05:57:31;;;;;;;11.63;8.50;;;-4.40;99.90;;;;;;5087651;28;20207;-71
2022/12/14 05:59:59;;;;;;;11.53;8.20;;;-4.50;99.90;;;;;;5087518;28;20206;-70
2022/12/14 06:02:26;;;;;;;11.10;8.27;;;-4.50;99.90;;;;;;5087654;28;20229;-70
2022/12/14 06:04:52;;;;;;;10.93;8.87;;;-4.50;99.90;;;;;;5087388;28;20203;-70
2022/12/14 06:07:19;;;;;;;10.63;8.00;;;-4.50;99.90;;;;;;5085429;28;20294;-70
2022/12/14 06:09:46;;;;;;;11.90;8.90;;;-4.50;99.90;;;;;;5086966;28;20641;-70
2022/12/14 06:12:14;;;;;;;10.77;8.27;;;-4.50;99.90;;;;;;5086985;28;20706;-70
2022/12/14 06:14:41;;;;;;;11.07;8.13;;;-4.50;99.90;;;;;;5075881;28;20321;-70
2022/12/14 06:17:08;;;;;;;13.00;8.67;;;-4.50;99.90;;;;;;5068559;28;20638;-70
2022/12/14 06:19:35;;;;;;;10.57;8.50;;;-4.50;99.90;;;;;;5071216;28;20673;-70
2022/12/14 06:22:02;;;;;;;10.53;8.20;;;-4.50;99.90;;;;;;5091113;28;20227;-70
2022/12/14 06:24:29;;;;;;;9.30;7.73;;;-4.50;99.90;;;;;;5076008;28;20218;-70
2022/12/14 06:26:56;;;;;;;9.77;7.53;;;-4.50;99.90;;;;;;5071115;28;20258;-70
2022/12/14 06:29:24;;;;;;;11.90;8.50;;;-4.50;99.90;;;;;;5070931;28;20294;-70
2022/12/14 06:31:51;;;;;;;10.47;8.17;;;-4.50;99.90;;;;;;5090418;28;20213;-70
2022/12/14 06:34:18;;;;;;;11.63;8.70;;;-4.50;99.90;;;;;;5090914;28;20238;-70
2022/12/14 06:36:46;;;;;;;9.03;7.30;;;-4.50;99.90;;;;;;5090965;28;20242;-70
2022/12/14 06:39:15;;;;;;;12.67;8.87;;;-4.50;99.90;;;;;;5090306;28;20210;-72
2022/12/14 06:41:43;;;;;;;10.87;8.20;;;-4.40;99.90;;;;;;5081071;28;20268;-72
2022/12/14 06:44:13;;;;;;;9.23;7.77;;;-4.40;99.90;;;;;;5070953;28;20265;-73
2022/12/14 06:46:42;;;;;;;10.63;8.53;;;-4.40;99.90;;;;;;5070653;28;20293;-73
2022/12/14 06:49:13;;;;;;;10.63;7.80;;;-4.50;99.90;;;;;;5070971;28;20289;-73
2022/12/14 06:51:40;;;;;;;12.87;8.93;;;-4.50;99.90;;;;;;5084782;28;20212;-71
2022/12/14 06:54:07;;;;;;;10.33;8.50;;;-4.50;99.90;;;;;;5070476;28;20206;-71
2022/12/14 06:56:35;;;;;;;10.23;8.37;;;-4.40;99.90;;;;;;5070788;28;20306;-71
2022/12/14 06:59:02;;;;;;;9.67;7.83;;;-4.50;99.90;;;;;;5070576;28;20239;-70
2022/12/14 07:01:29;;;;;;;11.53;8.47;;;-4.50;99.90;;;;;;5070381;28;20202;-70
2022/12/14 07:03:59;;;;;;;9.83;8.20;;;-4.50;99.90;;;;;;5082549;28;20238;-70
2022/12/14 07:06:27;;;;;;;10.97;8.43;;;-4.50;99.90;;;;;;5090176;28;20216;-71
2022/12/14 07:08:55;;;;;;;11.43;8.10;;;-4.50;99.90;;;;;;5090631;28;20258;-71
2022/12/14 07:11:22;;;;;;;11.63;8.33;;;-4.50;99.90;;;;;;5085498;28;20301;-71
2022/12/14 07:13:49;;;;;;;10.00;7.87;;;-4.60;99.90;;;;;;5090366;28;20242;-71
2022/12/14 07:16:18;;;;;;;11.07;7.70;;;-4.60;99.90;;;;;;5090402;28;21006;-71
2022/12/14 07:18:45;;;;;;;10.33;7.77;;;-4.60;99.90;;;;;;5090507;28;20326;-70
2022/12/14 07:21:15;;;;;;;12.07;8.93;;;-4.70;99.90;;;;;;5090221;28;20306;-70
2022/12/14 07:23:44;;;;;;;10.47;7.30;;;-4.60;99.90;;;;;;5090620;28;20227;-70
2022/12/14 07:26:13;;;;;;;9.83;7.97;;;-4.60;99.90;;;;;;5086917;28;20228;-71
2022/12/14 07:28:40;;;;;;;9.17;7.90;;;-4.60;99.90;;;;;;5069057;28;20295;-70
2022/12/14 07:31:11;;;;;;;10.77;8.37;;;-4.60;99.90;;;;;;5070050;28;20290;-70
2022/12/14 07:33:38;;;;;;;11.17;8.60;;;-4.60;99.90;;;;;;5072653;28;20203;-70
2022/12/14 07:36:07;;;;;;;11.80;8.43;;;-4.70;99.90;;;;;;5090050;28;20813;-71
2022/12/14 07:38:36;;;;;;;11.93;8.27;;;-4.70;99.90;;;;;;5090391;28;20632;-70
2022/12/14 07:41:05;;;;;;;8.67;7.07;;;-4.70;99.90;;;;;;5089566;28;20246;-71
2022/12/14 07:43:32;;;;;;;10.47;8.27;;;-4.70;99.90;;;;;;5090182;28;20421;-72
2022/12/14 07:46:01;;;;;;;10.07;7.57;;;-4.70;99.90;;;;;;5089857;28;20282;-71
2022/12/14 07:48:28;;;;;;;12.53;8.30;;;-4.70;99.90;;;;;;5074795;28;20231;-71
2022/12/14 07:50:55;;;;;;;8.90;7.13;;;-4.80;99.90;;;;;;5081112;28;20296;-72
2022/12/14 07:53:22;;;;;;;10.13;7.83;;;-4.70;99.90;;;;;;5089521;28;20670;-71
2022/12/14 07:55:50;;;;;;;9.80;7.57;;;-4.70;99.90;;;;;;5088986;28;20246;-71
2022/12/14 07:58:17;;;;;;;8.47;7.20;;;-4.70;99.90;;;;;;5071362;28;20640;-70
2022/12/14 08:00:44;;;;;;;9.40;7.77;;;-4.70;99.90;;;;;;5083194;28;20286;-70
2022/12/14 08:03:11;;;;;;;10.50;7.80;;;-4.70;99.90;;;;;;5073832;28;20567;-70
2022/12/14 08:05:39;;;;;;;9.43;7.63;;;-4.60;99.90;;;;;;5072543;28;20285;-70
2022/12/14 08:08:06;;;;;;;10.80;7.77;;;-4.60;99.90;;;;;;5076975;28;20222;-70
2022/12/14 08:10:33;;;;;;;10.73;8.23;;;-4.60;99.90;;;;;;5088721;28;20767;-70
2022/12/14 08:13:01;;;;;;;9.50;7.37;;;-4.50;99.90;;;;;;5089005;28;20226;-70
2022/12/14 08:15:28;;;;;;;9.83;7.80;;;-4.50;99.90;;;;;;5089351;28;20286;-70
2022/12/14 08:17:55;;;;;;;9.33;7.33;;;-4.40;99.90;;;;;;5089437;28;20261;-70
2022/12/14 08:20:22;;;;;;;11.63;7.53;;;-4.40;99.90;;;;;;5088973;28;20689;-71
2022/12/14 08:22:51;;;;;;;9.47;7.27;;;-4.40;99.90;;;;;;5082870;28;20321;-70
2022/12/14 08:25:18;;;;;;;10.93;8.00;;;-4.30;99.90;;;;;;5084598;28;20203;-71
2022/12/14 08:27:45;;;;;;;12.47;9.30;;;-4.30;99.90;;;;;;5089175;28;20240;-71
2022/12/14 08:30:13;;;;;;;10.87;8.10;;;-4.30;99.90;;;;;;5088962;28;20236;-70
2022/12/14 08:32:40;;;;;;;8.90;7.47;;;-4.30;99.90;;;;;;5088804;28;20217;-71
2022/12/14 08:35:08;;;;;;;11.17;7.97;;;-4.20;99.90;;;;;;5088981;28;20206;-71
2022/12/14 08:37:35;;;;;;;9.17;7.50;;;-4.10;99.90;;;;;;5088759;28;20722;-71
2022/12/14 08:40:02;;;;;;;9.87;7.40;;;-4.00;99.90;;;;;;5088169;28;20301;-71
2022/12/14 08:42:29;;;;;;;10.23;7.57;;;-3.90;99.90;;;;;;5088730;28;20230;-71
2022/12/14 08:44:56;;;;;;;10.83;7.90;;;-3.80;99.90;;;;;;5088529;28;20211;-71
2022/12/14 08:47:24;;;;;;;11.13;7.60;;;-3.70;99.90;;;;;;5088221;28;20231;-71
2022/12/14 08:49:52;;;;;;;10.03;7.67;;;-3.70;99.90;;;;;;5088473;28;20298;-72
2022/12/14 08:52:20;;;;;;;18.60;8.67;;;-3.60;99.90;;;;;;5088603;28;20210;-72
2022/12/14 08:54:47;;;;;;;11.17;8.00;;;-3.50;99.90;;;;;;5088044;28;20666;-73
2022/12/14 08:57:14;;;;;;;9.80;8.30;;;-3.40;99.90;;;;;;5070973;28;20427;-71
2022/12/14 08:59:41;;;;;;;11.60;8.10;;;-3.30;99.90;;;;;;5076896;28;20208;-71
2022/12/14 09:02:09;;;;;;;9.53;7.80;;;-3.30;99.90;;;;;;5078862;28;20210;-72
2022/12/14 09:04:37;;;;;;;10.33;7.53;;;-3.20;99.90;;;;;;5078570;28;20291;-73
2022/12/14 09:07:04;;;;;;;10.03;7.90;;;-3.10;99.90;;;;;;5077223;28;20623;-72
2022/12/14 09:09:31;;;;;;;9.60;7.83;;;-3.10;99.90;;;;;;5077678;28;20287;-73
2022/12/14 09:12:02;;;;;;;9.73;7.33;;;-3.10;99.90;;;;;;5075334;28;20253;-73
2022/12/14 09:14:29;;;;;;;9.93;7.87;;;-3.10;99.90;;;;;;5078190;28;20623;-72
2022/12/14 09:16:57;;;;;;;8.70;7.67;;;-3.10;99.90;;;;;;5079130;28;20200;-72
2022/12/14 09:19:24;;;;;;;8.93;7.47;;;-3.10;99.90;;;;;;5081219;28;20674;-73
2022/12/14 09:21:53;;;;;;;9.30;7.90;;;-3.10;99.90;;;;;;5078834;28;20207;-72
2022/12/14 09:24:21;;;;;;;9.13;8.07;;;-3.10;99.90;;;;;;5079545;28;20778;-72
2022/12/14 09:26:48;;;;;;;8.80;7.50;;;-3.00;99.90;;;;;;5082099;28;20207;-72
2022/12/14 09:29:17;;;;;;;11.60;8.07;;;-3.00;99.90;;;;;;5083947;28;20195;-72
2022/12/14 09:31:44;;;;;;;9.93;7.83;;;-3.00;99.90;;;;;;5079726;28;20298;-71
2022/12/14 09:34:11;;;;;;;9.23;7.70;;;-3.00;99.90;;;;;;5070518;28;20297;-71
2022/12/14 09:36:38;;;;;;;8.50;7.60;;;-2.90;99.90;;;;;;5077554;28;20254;-70
2022/12/14 09:39:06;;;;;;;9.87;7.77;;;-2.90;99.90;;;;;;5075045;28;20261;-70
2022/12/14 09:41:48;;;;;;;10.73;7.70;;;-2.80;99.90;;;;;;5075567;28;20287;-71
2022/12/14 09:44:22;;;;;;;8.37;7.57;;;-2.70;99.90;;;;;;5075547;28;20211;-71
2022/12/14 09:46:56;;;;;;;8.27;7.20;;;-2.60;99.90;;;;;;5077287;28;20690;-72
2022/12/14 09:49:29;;;;;;;8.90;8.00;;;-2.60;99.90;;;;;;5076302;28;20282;-71
2022/12/14 09:52:00;;;;;;;8.63;7.67;;;-2.60;99.90;;;;;;5080917;28;20248;-71
2022/12/14 09:54:30;;;;;;;9.30;7.53;;;-2.60;99.90;;;;;;5076988;28;20237;-71
2022/12/14 09:57:01;;;;;;;8.50;7.60;;;-2.50;99.90;;;;;;5064745;28;20206;-71
2022/12/14 09:59:30;;;;;;;10.60;8.43;;;-2.50;99.90;;;;;;5075158;28;20681;-71
2022/12/14 10:02:05;;;;;;;8.43;7.43;;;-2.50;99.90;;;;;;5085117;28;20693;-71
2022/12/14 10:04:46;;;;;;;8.40;7.37;;;-2.50;99.90;;;;;;5085353;28;20330;-71
2022/12/14 10:07:20;;;;;;;9.30;8.10;;;-2.50;99.90;;;;;;5085291;28;20232;-71
2022/12/14 10:09:55;;;;;;;8.57;7.67;;;-2.40;99.90;;;;;;5085341;28;20292;-71
2022/12/14 10:12:39;;;;;;;8.03;7.13;;;-2.40;99.90;;;;;;5085124;28;20241;-71
2022/12/14 10:15:19;;;;;;;8.67;7.13;;;-2.40;99.90;;;;;;5084963;28;20204;-71
2022/12/14 10:18:16;;;;;;;8.83;7.30;;;-2.30;99.90;;;;;;5084470;28;20574;-71
2022/12/14 10:20:49;;;;;;;8.77;7.87;;;-2.30;99.90;;;;;;5064843;28;20250;-71
2022/12/14 10:23:20;;;;;;;8.97;8.00;;;-2.20;99.90;;;;;;5064953;28;20321;-71
2022/12/14 10:25:51;;;;;;;9.33;8.03;;;-2.10;99.90;;;;;;5064996;28;20219;-71
2022/12/14 10:28:23;;;;;;;8.83;7.50;;;-2.10;99.90;;;;;;5064314;28;21136;-70
2022/12/14 10:30:56;;;;;;;10.60;7.40;;;-2.10;99.90;;;;;;5064842;28;20199;-71
2022/12/14 10:33:28;;;;;;;8.70;7.40;;;-2.00;99.90;;;;;;5064802;28;20288;-71
2022/12/14 10:36:00;;;;;;;10.43;8.00;;;-2.00;99.90;;;;;;5065255;28;20567;-70
2022/12/14 10:38:32;;;;;;;9.83;7.83;;;-2.00;99.90;;;;;;5065581;28;20616;-70
2022/12/14 10:41:08;;;;;;;9.53;7.93;;;-2.00;99.90;;;;;;5064878;28;20732;-71
2022/12/14 10:43:46;;;;;;;7.90;7.10;;;-2.00;99.90;;;;;;5064676;28;20313;-70
2022/12/14 10:46:23;;;;;;;10.03;8.23;;;-2.00;99.90;;;;;;5064469;28;20244;-71
2022/12/14 10:48:56;;;;;;;9.90;7.87;;;-2.00;99.90;;;;;;5075892;28;20286;-70
2022/12/14 10:51:28;;;;;;;10.77;8.00;;;-2.00;99.90;;;;;;5084554;28;20249;-70
2022/12/14 10:54:00;;;;;;;8.83;7.43;;;-1.90;99.90;;;;;;5084718;28;20610;-70
2022/12/14 10:56:32;;;;;;;9.97;7.93;;;-1.90;99.90;;;;;;5084446;28;20347;-70
2022/12/14 10:59:29;;;;;;;8.63;7.53;;;-1.80;99.90;;;;;;5084943;28;20247;-70
2022/12/14 11:02:03;;;;;;;10.47;7.67;;;-1.80;99.90;;;;;;5084901;28;20198;-70
2022/12/14 11:04:35;;;;;;;8.83;7.83;;;-1.80;99.90;;;;;;5088339;28;20225;-70
2022/12/14 11:07:04;;;;;;;9.30;7.47;;;-1.80;99.90;;;;;;5087879;28;20204;-71
2022/12/14 11:09:32;;;;;;;10.40;7.73;;;-1.70;99.90;;;;;;5087849;28;20215;-70
2022/12/14 11:12:03;;;;;;;13.13;8.33;;;-1.60;99.90;;;;;;5088471;28;20320;-71
2022/12/14 11:14:31;;;;;;;10.33;8.40;;;-1.50;99.90;;;;;;5088894;28;20242;-71
2022/12/14 11:16:58;;;;;;;11.97;8.30;;;-1.40;99.90;;;;;;5089199;28;20238;-71
2022/12/14 11:19:27;;;;;;;10.00;8.70;;;-1.30;99.90;;;;;;5089028;28;20226;-70
2022/12/14 11:22:09;;;;;;;9.97;8.33;;;-1.20;99.90;;;;;;5085612;28;20248;-70
2022/12/14 11:24:44;;;;;;;11.80;8.47;;;-1.10;99.90;;;;;;5071165;28;20238;-70
2022/12/14 11:27:16;;;;;;;10.27;7.83;;;-1.00;99.90;;;;;;5079709;28;20202;-71
2022/12/14 11:29:46;;;;;;;9.87;8.33;;;-1.00;99.90;;;;;;5087331;28;20203;-71
2022/12/14 11:32:20;;;;;;;11.50;7.07;;;-0.90;99.90;;;;;;5083283;28;20195;-70
2022/12/14 11:34:54;;;;;;;8.80;7.90;;;-0.90;99.90;;;;;;5070256;28;20226;-70
2022/12/14 11:37:25;;;;;;;9.13;7.40;;;-0.80;99.90;;;;;;5076152;28;20199;-70
2022/12/14 11:39:54;;;;;;;8.50;7.40;;;-0.90;99.90;;;;;;5066940;28;20199;-71
2022/12/14 11:42:23;;;;;;;9.83;8.00;;;-0.90;99.90;;;;;;5066582;28;20283;-72
2022/12/14 11:44:51;;;;;;;8.90;7.37;;;-1.00;99.90;;;;;;5079855;28;20665;-71
2022/12/14 11:47:19;;;;;;;9.83;7.77;;;-1.00;99.90;;;;;;5073172;28;20239;-71
2022/12/14 11:49:48;;;;;;;8.93;7.93;;;-1.10;99.90;;;;;;5069127;28;20321;-71
2022/12/14 11:52:18;;;;;;;8.93;7.97;;;-1.20;99.90;;;;;;5086522;28;20214;-71
2022/12/14 11:54:47;;;;;;;8.37;7.50;;;-1.10;99.90;;;;;;5075838;28;20196;-71
2022/12/14 11:57:28;;;;;;;8.03;7.23;;;-1.20;99.90;;;;;;5067331;28;20931;-71
2022/12/14 11:59:57;;;;;;;8.90;7.77;;;-1.20;99.90;;;;;;5067517;28;20205;-71
2022/12/14 12:02:28;;;;;;;11.17;7.80;;;-1.20;99.90;;;;;;5066841;28;20687;-71
2022/12/14 12:04:59;;;;;;;8.50;7.60;;;-1.20;99.90;;;;;;5080363;28;20228;-71
2022/12/14 12:07:31;;;;;;;8.83;7.67;;;-1.10;99.90;;;;;;5087150;28;20336;-71
2022/12/14 12:10:05;;;;;;;9.83;8.07;;;-1.10;99.90;;;;;;5086987;28;20206;-71
2022/12/14 12:12:33;;;;;;;10.80;8.23;;;-1.00;99.90;;;;;;5087842;28;20209;-71
2022/12/14 12:15:00;;;;;;;8.93;7.77;;;-1.00;99.90;;;;;;5085856;28;20249;-71
2022/12/14 12:17:39;;;;;;;8.63;7.73;;;-1.00;99.90;;;;;;5086702;28;20298;-71
2022/12/14 12:20:20;;;;;;;7.93;7.13;;;-1.00;99.90;;;;;;5086991;28;20238;-70
2022/12/14 12:22:50;;;;;;;8.57;7.63;;;-1.00;99.90;;;;;;5084877;28;20226;-71
2022/12/14 12:25:22;;;;;;;11.40;8.20;;;-1.00;99.90;;;;;;5085388;28;20322;-71
2022/12/14 12:27:58;;;;;;;9.63;7.57;;;-1.00;99.90;;;;;;5086672;28;21119;-71
2022/12/14 12:30:28;;;;;;;9.33;8.03;;;-0.90;99.90;;;;;;5081290;28;20593;-71
2022/12/14 12:33:00;;;;;;;8.50;7.60;;;-0.90;99.90;;;;;;5065968;28;20196;-70
2022/12/14 12:35:36;;;;;;;8.53;7.60;;;-0.90;99.90;;;;;;5069852;28;20295;-70
2022/12/14 12:38:09;;;;;;;9.53;7.80;;;-0.90;99.90;;;;;;5071900;28;20191;-71
2022/12/14 12:40:44;;;;;;;10.43;7.93;;;-0.90;99.90;;;;;;5081196;28;20213;-70
2022/12/14 12:43:20;;;;;;;8.47;7.60;;;-1.00;99.90;;;;;;5067567;28;20530;-71
2022/12/14 12:45:52;;;;;;;8.50;7.57;;;-1.10;99.90;;;;;;5075417;28;20199;-71
2022/12/14 12:48:23;;;;;;;8.00;7.20;;;-1.10;99.90;;;;;;5065748;28;20880;-70
2022/12/14 12:50:54;;;;;;;8.70;7.80;;;-1.20;99.90;;;;;;5077081;28;20214;-71
2022/12/14 12:53:27;;;;;;;10.00;7.63;;;-1.00;99.90;;;;;;5075035;28;20206;-70
2022/12/14 12:55:58;;;;;;;10.80;8.00;;;-0.90;99.90;;;;;;5066013;28;20207;-71
2022/12/14 12:58:31;;;;;;;7.83;7.07;;;-0.60;99.90;;;;;;5066299;28;20630;-71
2022/12/14 13:01:01;;;;;;;8.53;7.63;;;-0.40;99.90;;;;;;5078081;28;20286;-71
2022/12/14 13:03:36;;;;;;;9.17;8.10;;;-0.30;99.90;;;;;;5086035;28;20294;-71
2022/12/14 13:06:11;;;;;;;11.37;9.03;;;-0.30;99.90;;;;;;5069051;28;20195;-70
2022/12/14 13:08:40;;;;;;;9.80;8.33;;;-0.30;99.90;;;;;;5078844;28;20321;-70
2022/12/14 13:11:15;;;;;;;8.77;7.77;;;-0.30;99.90;;;;;;5085629;28;20203;-71
2022/12/14 13:13:48;;;;;;;8.60;7.70;;;-0.30;99.90;;;;;;5086130;28;20293;-70